MAY weather

8 de Mayo Airstrip
Hermosillo, Sonora, Mexico

Public forecast

Using degrees Celsius for public forecast. Weather courtesy of forecast.io.

METAR (pilot weather report)

Closest report is General Ignacio P. Garcia International Airport, 19.5 nm (36.1 km) ENE. Retrieved 2019/05/26 16:44 UTC (59 minutes ago):

MMHO 261644Z 23010KT 10SM SKC 26/08 A2995 RMK HZY

TAF (pilot weather forecast)

Forecast is more than 12 hours old.

Closest forecast is General Ignacio P. Garcia International Airport, 19.5 nm (36.1 km) ENE. Retrieved 2019/05/25 18:49 UTC (23 hours ago):

TAF MMHO 251642Z 2518/2618 20010KT P6SM SKC TEMPO 2520/2524 20016KT FM260300 25006KT P6SM SKC FM261600 23010KT P6SM SKC